Fridley, MN

8:46 PM CST on March 05, 2015 (GMT -0600)
Memory Lane | Change Station
CLOSE
Current Station
Personal Weather Station
Location: Fridley, MN
Elevation: 900 ft
Nearby Weather Stations

Elev 900 ft 45.10 °N, 93.26 °W | Updated 7 seconds ago

Partly Cloudy
Partly Cloudy
10.5 °F
Feels Like 10 °F
N
1.0
Wind Variable Wind from SE
Gusts 1.0 mph

Today
High -- | Low -- °F
--% Chance of Precip.
Yesterday
High -- | Low -- °F
Precip. -- in
6:44 AM 6:05 PM
Full, 100% visible
Pressure 30.35 in
Visibility 10.0 miles
Clouds Clear
Windchill 10 °F
Dew Point -1 °F
Humidity 59%
Rainfall in
Snow Depth Not available.
UV 0.0 out of 12
Pollen .50 out of 12
Air Quality Not available.
Flu Activity Not available.
METAR KANE 060145Z 18005KT 10SM SKC M12/M17 A3035

More Conditions Fewer Conditions

Pressure 30.35 in
Visibility 10.0 miles
Clouds Clear
Windchill 10 °F
Dew Point -1 °F
Humidity 59%
Rainfall in
Snow Depth Not available.
UV 0.0 out of 12
Pollen .50 out of 12
Air Quality Not available.
Flu Activity Not available.
METAR KANE 060145Z 18005KT 10SM SKC M12/M17 A3035

More Conditions Fewer Conditions

10-Day Weather Forecast

Almanac

Astronomy

Mar. 05, 2015 Rise Set
Actual Time
Civil Twilight
Nautical Twilight
Astronomical Twilight
Moon
Length of Visible Light
Length of Day
Tomorrow will be .
, % of the Moon is Illuminated

Today's Extremes

State Highs State Lows

Community

WunderPhotos

Upload Photos

1,803,134 photos uploaded!

WunderBlogs® & News

Nearby

Air Quality

  Air Quality AQ Index Pollutant
Not available.

Snow Depth

Station Depth Elevation

Earthquake Activity

City Distance Mag. Time & Date
Minimum magnitude displayed is 2.5.

Coastal Water Temperatures

Place Temperature

Nearby Weather Stations